Williamson, Illinois
Current Conditions -  °F | °C
As of 1:15 AM on Sunday 26 Oct 2014 (Local Time) from K3LF Reporting Station
Clear Clear  
Wind Chill: 52°   Ceiling: Unl
Heat Index: 52°   Visibility: 10mi
Dew Point: 42°   Wind: 7mph
Humidity: 68%   Direction: 360°N
Pressure: 30.03"   Gusts: NA
Location:  39.0218°N, 89.7604°W
Report Text: K3LF 260615Z AUTO 36006KT 10SM CLR 11/05 A3003 RMK AO2 T01100054
Loading
Personal Weather Stations






























Interactive Weather Map
Tropical Storm Tracking
New forecast layout! Learn more

10-Day Weather Forecast

Advertisements
Track Severe Weather on mobile